Time;durP1;ratioP1;P1;durP2;ratioP2;P2;SDS_P1;SDS_P2;PMS_P1;PMS_P2;Temp;Humidity;BMP_temperature;BMP_pressure;BME280_temperature;BME280_humidity;BME280_pressure;Samples;Min_cycle;Max_cycle;Signal;HPM_P1;HPM_P2
2023/02/16 00:00:49;;;;;;;;;;;;;;;7.22;100.00;102341.19;5041389;28;19921;-64
2023/02/16 00:03:17;;;;;;;;;;;;;;;7.17;100.00;102342.38;5030034;28;19971;-66
2023/02/16 00:05:44;;;;;;;;;;;;;;;7.19;100.00;102338.72;5037431;28;21295;-66
2023/02/16 00:08:10;;;;;;;;;;;;;;;7.17;100.00;102342.38;5045274;28;20619;-66
2023/02/16 00:10:37;;;;;;;;;;;;;;;7.11;100.00;102341.81;5031802;28;19925;-66
2023/02/16 00:16:25;;;;;;;;;;;;;;;7.12;100.00;102345.25;5033199;28;19925;-66
2023/02/16 00:18:52;;;;;;;;;;;;;;;7.05;100.00;102347.34;5041075;28;19925;-66
2023/02/16 00:21:18;;;;;;;;;;;;;;;7.02;100.00;102344.09;5032868;28;19932;-66
2023/02/16 00:23:45;;;;;;;;;;;;;;;6.97;100.00;102341.72;5030798;28;19957;-66
2023/02/16 00:26:13;;;;;;;;;;;;;;;6.98;100.00;102343.41;5037153;28;19974;-66
2023/02/16 00:28:39;;;;;;;;;;;;;;;7.00;100.00;102343.31;5033460;28;19925;-66
2023/02/16 00:31:11;;;;;;;;;;;;;;;6.97;100.00;102346.09;5033265;28;19924;-66
2023/02/16 00:33:38;;;;;;;;;;;;;;;6.94;100.00;102344.50;5026034;28;19928;-66
2023/02/16 00:36:04;;;;;;;;;;;;;;;6.91;100.00;102344.66;5042013;28;20344;-66
2023/02/16 00:38:30;;;;;;;;;;;;;;;6.87;100.00;102338.78;5030885;28;20331;-66
2023/02/16 00:40:57;;;;;;;;;;;;;;;6.83;100.00;102339.88;5034609;28;19931;-66
2023/02/16 00:43:25;;;;;;;;;;;;;;;6.79;100.00;102338.38;5042001;28;20405;-66
2023/02/16 00:45:51;;;;;;;;;;;;;;;6.80;100.00;102347.03;5031462;28;19960;-66
2023/02/16 00:48:18;;;;;;;;;;;;;;;6.79;100.00;102335.75;5030667;28;19921;-66
2023/02/16 00:50:44;;;;;;;;;;;;;;;6.79;100.00;102329.72;5024985;28;19967;-66
2023/02/16 00:53:11;;;;;;;;;;;;;;;6.73;100.00;102336.94;5033061;28;20019;-66
2023/02/16 00:55:38;;;;;;;;;;;;;;;6.72;100.00;102337.00;5035746;28;19970;-66
2023/02/16 00:58:12;;;;;;;;;;;;;;;6.67;100.00;102332.06;5033487;28;20481;-66
2023/02/16 01:00:40;;;;;;;;;;;;;;;6.69;100.00;102335.41;5030567;28;20665;-66
2023/02/16 01:03:10;;;;;;;;;;;;;;;6.63;100.00;102330.53;5029907;28;19929;-69
2023/02/16 01:05:36;;;;;;;;;;;;;;;6.65;100.00;102333.91;5039174;28;19962;-66
2023/02/16 01:11:06;;;;;;;;;;;;;;;6.59;100.00;102326.44;5043799;28;19925;-66
2023/02/16 01:13:42;;;;;;;;;;;;;;;6.61;100.00;102328.94;5014130;28;19925;-66
2023/02/16 01:16:11;;;;;;;;;;;;;;;6.53;100.00;102324.16;5037102;28;19924;-66
2023/02/16 01:18:37;;;;;;;;;;;;;;;6.52;100.00;102319.84;5032475;28;19925;-66
2023/02/16 01:21:03;;;;;;;;;;;;;;;6.48;100.00;102318.34;5040136;28;19983;-66
2023/02/16 01:23:30;;;;;;;;;;;;;;;6.48;100.00;102329.59;5040436;28;19928;-66
2023/02/16 01:25:56;;;;;;;;;;;;;;;6.49;100.00;102331.28;5018263;28;19925;-66
2023/02/16 01:28:24;;;;;;;;;;;;;;;6.51;100.00;102328.59;5037163;28;19925;-66
2023/02/16 01:30:51;;;;;;;;;;;;;;;6.48;100.00;102315.72;5029278;28;19959;-66
2023/02/16 01:33:19;;;;;;;;;;;;;;;6.49;100.00;102320.03;5040512;28;19971;-66
2023/02/16 01:35:45;;;;;;;;;;;;;;;6.48;100.00;102313.13;5035332;28;19932;-66
2023/02/16 01:38:16;;;;;;;;;;;;;;;6.44;100.00;102317.66;5039306;28;19946;-66
2023/02/16 01:40:47;;;;;;;;;;;;;;;6.40;100.00;102316.13;5041141;28;19931;-66
2023/02/16 01:43:17;;;;;;;;;;;;;;;6.33;100.00;102318.25;5032253;28;19925;-66
2023/02/16 01:45:46;;;;;;;;;;;;;;;6.26;100.00;102316.88;5031153;28;20281;-66
2023/02/16 01:48:30;;;;;;;;;;;;;;;6.22;100.00;102304.94;5025411;28;19921;-66
2023/02/16 01:51:05;;;;;;;;;;;;;;;6.17;100.00;102313.91;5043038;28;19925;-66
2023/02/16 01:53:35;;;;;;;;;;;;;;;6.14;100.00;102301.91;5026614;28;19928;-66
2023/02/16 01:56:04;;;;;;;;;;;;;;;6.10;100.00;102300.38;4998877;28;19932;-66
2023/02/16 01:58:49;;;;;;;;;;;;;;;6.07;100.00;102284.91;5034572;28;20417;-66
2023/02/16 02:01:21;;;;;;;;;;;;;;;6.06;100.00;102278.88;5031513;28;20000;-66
2023/02/16 02:06:33;;;;;;;;;;;;;;;6.04;100.00;102287.69;5025860;28;19920;-66
2023/02/16 02:09:02;;;;;;;;;;;;;;;5.98;100.00;102294.06;5028699;28;19941;-66
2023/02/16 02:11:33;;;;;;;;;;;;;;;5.92;100.00;102294.34;5034589;28;19925;-66
2023/02/16 02:13:59;;;;;;;;;;;;;;;5.85;100.00;102299.03;5032306;28;19929;-66
2023/02/16 02:16:27;;;;;;;;;;;;;;;5.80;100.00;102295.84;5009080;28;19978;-66
2023/02/16 02:18:53;;;;;;;;;;;;;;;5.75;100.00;102290.00;5028173;28;19929;-66
2023/02/16 02:24:50;;;;;;;;;;;;;;;5.62;100.00;102276.75;5027136;28;19925;-66
2023/02/16 02:27:22;;;;;;;;;;;;;;;5.55;100.00;102281.44;5016763;28;20361;-66
2023/02/16 02:30:04;;;;;;;;;;;;;;;5.53;100.00;102277.25;5033712;28;19921;-66
2023/02/16 02:32:36;;;;;;;;;;;;;;;5.50;100.00;102275.63;5027150;28;20651;-66
2023/02/16 02:35:22;;;;;;;;;;;;;;;5.45;100.00;102282.84;5033721;28;19924;-66
2023/02/16 02:38:03;;;;;;;;;;;;;;;5.42;100.00;102277.78;5029153;28;19986;-66
2023/02/16 02:40:30;;;;;;;;;;;;;;;5.38;100.00;102270.22;5035716;28;19924;-66
2023/02/16 02:43:02;;;;;;;;;;;;;;;5.32;100.00;102269.59;5032557;28;19939;-66
2023/02/16 02:45:30;;;;;;;;;;;;;;;5.40;100.00;102277.00;5032394;28;19952;-66
2023/02/16 02:47:57;;;;;;;;;;;;;;;5.42;100.00;102269.97;5024203;28;20581;-65
2023/02/16 02:50:36;;;;;;;;;;;;;;;5.44;100.00;102269.91;5026498;28;20236;-65
2023/02/16 02:53:05;;;;;;;;;;;;;;;5.45;100.00;102261.16;5032841;28;20340;-66
2023/02/16 03:01:05;;;;;;;;;;;;;;;5.52;100.00;102262.53;5031423;28;19940;-66
2023/02/16 03:03:38;;;;;;;;;;;;;;;5.48;100.00;102264.44;5027987;28;19928;-66
2023/02/16 03:06:08;;;;;;;;;;;;;;;5.45;100.00;102259.41;5034720;28;19921;-66
2023/02/16 03:08:36;;;;;;;;;;;;;;;5.44;100.00;102254.28;5024348;28;19925;-66
2023/02/16 03:13:57;;;;;;;;;;;;;;;5.38;100.00;102252.84;5030123;28;20369;-63
2023/02/16 03:16:30;;;;;;;;;;;;;;;5.37;100.00;102252.91;5030610;28;19921;-64
2023/02/16 03:30:03;;;;;;;;;;;;;;;5.20;100.00;102249.41;5024373;28;19928;-64
2023/02/16 03:32:30;;;;;;;;;;;;;;;5.20;100.00;102239.00;5019161;28;19925;-65
2023/02/16 03:34:56;;;;;;;;;;;;;;;5.19;100.00;102242.50;5028597;28;20309;-65
2023/02/16 03:37:23;;;;;;;;;;;;;;;5.20;100.00;102243.38;5024418;28;19925;-64
2023/02/16 03:42:34;;;;;;;;;;;;;;;5.10;100.00;102243.81;5026616;28;19924;-64
2023/02/16 03:45:01;;;;;;;;;;;;;;;5.05;100.00;102250.16;5023819;28;20431;-65
2023/02/16 03:47:27;;;;;;;;;;;;;;;4.98;100.00;102241.81;5019109;28;19925;-63
2023/02/16 03:49:53;;;;;;;;;;;;;;;4.95;100.00;102239.34;5038763;28;20015;-63
2023/02/16 03:52:20;;;;;;;;;;;;;;;4.92;100.00;102239.50;5032746;28;19921;-65
2023/02/16 03:54:46;;;;;;;;;;;;;;;4.89;100.00;102240.50;5031877;28;19936;-63
2023/02/16 03:57:12;;;;;;;;;;;;;;;4.87;100.00;102239.72;5036822;28;19974;-65
2023/02/16 03:59:39;;;;;;;;;;;;;;;4.81;100.00;102234.84;5017419;28;20314;-65
2023/02/16 04:02:05;;;;;;;;;;;;;;;4.80;100.00;102230.53;5033741;28;20487;-63
2023/02/16 04:04:31;;;;;;;;;;;;;;;4.78;100.00;102239.34;5023757;28;19929;-63
2023/02/16 04:06:58;;;;;;;;;;;;;;;4.73;100.00;102245.59;5032318;28;19922;-66
2023/02/16 04:09:24;;;;;;;;;;;;;;;4.63;100.00;102241.75;5026251;28;19921;-63
2023/02/16 04:14:35;;;;;;;;;;;;;;;4.58;100.00;102245.50;5032688;28;19931;-64
2023/02/16 04:17:02;;;;;;;;;;;;;;;4.57;100.00;102244.66;5033876;28;19955;-65
2023/02/16 04:19:29;;;;;;;;;;;;;;;4.62;100.00;102242.66;5039400;28;19933;-64
2023/02/16 04:21:55;;;;;;;;;;;;;;;4.60;100.00;102247.09;5040226;28;19925;-65
2023/02/16 04:24:22;;;;;;;;;;;;;;;4.57;100.00;102257.66;5026429;28;19932;-64
2023/02/16 04:26:48;;;;;;;;;;;;;;;4.55;100.00;102252.50;5018114;28;19967;-63
2023/02/16 04:29:14;;;;;;;;;;;;;;;4.56;100.00;102254.19;5023629;28;19925;-64
2023/02/16 04:31:41;;;;;;;;;;;;;;;4.61;100.00;102266.16;5031401;28;19932;-64
2023/02/16 04:34:07;;;;;;;;;;;;;;;4.67;100.00;102253.69;5028894;28;20019;-63
2023/02/16 04:36:33;;;;;;;;;;;;;;;4.74;100.00;102260.28;5032710;28;19921;-64
2023/02/16 04:39:00;;;;;;;;;;;;;;;4.82;100.00;102252.13;5020412;28;20144;-64
2023/02/16 04:41:26;;;;;;;;;;;;;;;4.91;100.00;102256.03;5022975;28;19932;-64
2023/02/16 04:43:52;;;;;;;;;;;;;;;4.96;100.00;102261.88;5028016;28;20362;-65
2023/02/16 04:46:19;;;;;;;;;;;;;;;4.99;100.00;102253.88;5034458;28;19991;-64
2023/02/16 04:48:45;;;;;;;;;;;;;;;5.07;100.00;102243.94;5030615;28;20388;-63
2023/02/16 04:51:11;;;;;;;;;;;;;;;5.16;100.00;102240.06;5020240;28;19925;-63
2023/02/16 04:53:38;;;;;;;;;;;;;;;5.18;100.00;102240.81;5025991;28;19921;-63
2023/02/16 04:56:07;;;;;;;;;;;;;;;5.24;100.00;102237.91;5020591;28;20404;-64
2023/02/16 04:58:34;;;;;;;;;;;;;;;5.31;100.00;102244.50;5027511;28;19928;-63
2023/02/16 05:01:00;;;;;;;;;;;;;;;5.34;100.00;102233.09;5036424;28;20611;-63
2023/02/16 05:03:27;;;;;;;;;;;;;;;5.42;100.00;102238.75;5031890;28;19933;-64
2023/02/16 05:05:53;;;;;;;;;;;;;;;5.46;100.00;102244.63;5050095;28;19920;-63
2023/02/16 05:08:20;;;;;;;;;;;;;;;5.50;100.00;102231.38;5022120;28;19925;-63
2023/02/16 05:14:40;;;;;;;;;;;;;;;5.52;100.00;102242.56;5030317;28;19960;-64
2023/02/16 05:16:19;;;;;;;;;;;;;;;5.53;100.00;102235.59;5033544;28;19931;-63
2023/02/16 05:18:45;;;;;;;;;;;;;;;5.52;100.00;102231.31;5026765;28;20428;-64
2023/02/16 05:24:10;;;;;;;;;;;;;;;5.66;100.00;102230.59;4994900;28;20341;-63
2023/02/16 05:26:38;;;;;;;;;;;;;;;5.63;100.00;102238.59;5038319;28;20433;-64
2023/02/16 05:29:05;;;;;;;;;;;;;;;5.65;100.00;102240.16;5028653;28;20374;-63
2023/02/16 05:31:31;;;;;;;;;;;;;;;5.63;100.00;102235.97;5025418;28;19924;-65
2023/02/16 05:33:57;;;;;;;;;;;;;;;5.68;100.00;102231.34;5039968;28;19951;-64
2023/02/16 05:36:24;;;;;;;;;;;;;;;5.66;100.00;102230.59;5029853;28;20011;-64
2023/02/16 05:38:50;;;;;;;;;;;;;;;5.67;100.00;102232.28;5028833;28;20361;-64
2023/02/16 05:41:22;;;;;;;;;;;;;;;5.71;100.00;102221.63;5036790;28;20612;-64
2023/02/16 05:43:53;;;;;;;;;;;;;;;5.69;100.00;102231.28;5036846;28;19928;-65
2023/02/16 05:46:20;;;;;;;;;;;;;;;5.68;100.00;102231.34;5041536;28;19921;-63
2023/02/16 05:48:47;;;;;;;;;;;;;;;5.66;100.00;102231.44;5030107;28;20460;-64
2023/02/16 05:51:13;;;;;;;;;;;;;;;5.63;100.00;102229.00;5021610;28;20121;-64
2023/02/16 05:53:39;;;;;;;;;;;;;;;5.62;100.00;102227.31;5033073;28;19921;-64
2023/02/16 05:56:06;;;;;;;;;;;;;;;5.61;100.00;102222.19;5038805;28;19931;-65
2023/02/16 05:58:32;;;;;;;;;;;;;;;5.59;100.00;102218.84;5034978;28;19925;-65
2023/02/16 06:00:59;;;;;;;;;;;;;;;5.60;100.00;102215.28;5027094;28;20305;-63
2023/02/16 06:03:25;;;;;;;;;;;;;;;5.64;100.00;102212.44;5032349;28;20210;-63
2023/02/16 06:05:56;;;;;;;;;;;;;;;5.59;100.00;102217.06;5029222;28;19931;-64
2023/02/16 06:08:22;;;;;;;;;;;;;;;5.61;100.00;102230.00;5037911;28;20348;-64
2023/02/16 06:10:49;;;;;;;;;;;;;;;5.60;100.00;102218.72;5024849;28;19927;-63
2023/02/16 06:13:16;;;;;;;;;;;;;;;5.66;100.00;102208.00;5031380;28;19947;-63
2023/02/16 06:15:42;;;;;;;;;;;;;;;5.68;100.00;102210.53;5028663;28;20038;-63
2023/02/16 06:18:10;;;;;;;;;;;;;;;5.71;100.00;102206.00;5012518;28;19925;-63
2023/02/16 06:20:39;;;;;;;;;;;;;;;5.74;100.00;102212.81;5021366;28;20011;-65
2023/02/16 06:23:06;;;;;;;;;;;;;;;5.74;100.00;102216.28;5027512;28;19927;-63
2023/02/16 06:25:33;;;;;;;;;;;;;;;5.78;100.00;102203.06;5031816;28;19952;-64
2023/02/16 06:27:59;;;;;;;;;;;;;;;5.80;100.00;102193.41;5013552;28;20290;-64
2023/02/16 06:30:26;;;;;;;;;;;;;;;5.76;100.00;102208.34;5029872;28;19960;-62
2023/02/16 06:32:53;;;;;;;;;;;;;;;5.78;100.00;102222.13;5032598;28;20306;-65
2023/02/16 06:35:19;;;;;;;;;;;;;;;5.82;100.00;102228.88;5033170;28;19921;-63
2023/02/16 06:37:46;;;;;;;;;;;;;;;5.88;100.00;102233.75;5034862;28;20162;-64
2023/02/16 06:40:16;;;;;;;;;;;;;;;5.90;100.00;102231.91;5026059;28;19931;-64
2023/02/16 06:42:42;;;;;;;;;;;;;;;5.94;100.00;102233.44;5037903;28;19925;-64
2023/02/16 06:45:09;;;;;;;;;;;;;;;5.94;100.00;102232.59;5005896;28;19921;-64
2023/02/16 06:47:35;;;;;;;;;;;;;;;5.93;100.00;102230.91;5027491;28;19929;-63
2023/02/16 06:50:03;;;;;;;;;;;;;;;5.97;100.00;102229.00;5022230;28;19953;-64
2023/02/16 06:52:29;;;;;;;;;;;;;;;6.00;100.00;102221.03;5027108;28;20373;-64
2023/02/16 06:54:56;;;;;;;;;;;;;;;5.96;100.00;102232.53;5031481;28;19925;-63
2023/02/16 06:57:22;;;;;;;;;;;;;;;5.98;100.00;102235.88;5032233;28;19924;-64
2023/02/16 06:59:48;;;;;;;;;;;;;;;5.99;100.00;102229.78;5029492;28;19921;-63
2023/02/16 07:02:15;;;;;;;;;;;;;;;5.98;100.00;102234.16;5027133;28;19944;-64
2023/02/16 07:04:41;;;;;;;;;;;;;;;6.05;100.00;102232.88;5013247;28;19929;-62
2023/02/16 07:07:08;;;;;;;;;;;;;;;6.07;100.00;102238.84;5023320;28;20429;-63
2023/02/16 07:09:37;;;;;;;;;;;;;;;6.05;100.00;102242.47;5029134;28;19921;-64
2023/02/16 07:12:03;;;;;;;;;;;;;;;6.08;100.00;102235.34;5036241;28;19924;-64
2023/02/16 07:14:30;;;;;;;;;;;;;;;6.14;100.00;102231.56;5019936;28;19948;-64
2023/02/16 07:16:58;;;;;;;;;;;;;;;6.14;100.00;102232.38;5034871;28;19928;-64
2023/02/16 07:19:25;;;;;;;;;;;;;;;6.19;100.00;102228.69;5019437;28;19920;-63
2023/02/16 07:21:53;;;;;;;;;;;;;;;6.19;100.00;102231.31;5036687;28;19924;-65
2023/02/16 07:24:19;;;;;;;;;;;;;;;6.21;100.00;102240.69;5021072;28;20249;-64
2023/02/16 07:26:45;;;;;;;;;;;;;;;6.23;100.00;102232.81;5024103;28;20327;-64
2023/02/16 07:29:12;;;;;;;;;;;;;;;6.26;100.00;102233.50;5022436;28;19932;-64
2023/02/16 07:31:38;;;;;;;;;;;;;;;6.28;100.00;102238.63;5029608;28;20074;-63
2023/02/16 07:34:05;;;;;;;;;;;;;;;6.25;100.00;102231.81;5034756;28;20460;-63
2023/02/16 07:36:33;;;;;;;;;;;;;;;6.24;100.00;102230.13;5030162;28;19924;-63
2023/02/16 07:38:59;;;;;;;;;;;;;;;6.27;100.00;102229.97;5026224;28;20365;-62
2023/02/16 07:41:26;;;;;;;;;;;;;;;6.31;100.00;102239.31;5023314;28;20373;-64
2023/02/16 07:43:52;;;;;;;;;;;;;;;6.29;100.00;102238.56;5030337;28;19925;-64
2023/02/16 07:46:19;;;;;;;;;;;;;;;6.28;100.00;102236.84;5033679;28;19925;-65
2023/02/16 07:48:47;;;;;;;;;;;;;;;6.28;100.00;102233.41;5015171;28;19921;-64
2023/02/16 07:51:21;;;;;;;;;;;;;;;6.41;100.00;102238.78;5030434;28;19925;-63
2023/02/16 07:53:47;;;;;;;;;;;;;;;6.42;100.00;102243.91;5030510;28;19967;-64
2023/02/16 07:56:24;;;;;;;;;;;;;;;6.45;100.00;102242.91;5033268;28;19920;-65
2023/02/16 07:58:51;;;;;;;;;;;;;;;6.42;100.00;102251.72;5027930;28;20298;-64
2023/02/16 08:01:18;;;;;;;;;;;;;;;6.40;100.00;102255.34;5031721;28;19948;-65
2023/02/16 08:03:44;;;;;;;;;;;;;;;6.40;100.00;102258.78;5032117;28;19932;-63
2023/02/16 08:06:11;;;;;;;;;;;;;;;6.42;100.00;102256.13;5032916;28;19933;-64
2023/02/16 08:08:38;;;;;;;;;;;;;;;6.44;100.00;102262.91;5018800;28;20176;-64
2023/02/16 08:11:11;;;;;;;;;;;;;;;6.49;100.00;102262.69;5020282;28;19924;-64
2023/02/16 08:13:38;;;;;;;;;;;;;;;6.58;100.00;102258.72;5037997;28;19925;-66
2023/02/16 08:16:08;;;;;;;;;;;;;;;6.61;100.00;102264.59;5033963;28;19928;-63
2023/02/16 08:18:35;;;;;;;;;;;;;;;6.67;100.00;102269.47;5027350;28;20007;-65
2023/02/16 08:21:12;;;;;;;;;;;;;;;6.72;100.00;102264.84;5040324;28;19924;-64
2023/02/16 08:23:40;;;;;;;;;;;;;;;6.77;100.00;102274.19;5029586;28;20078;-65
2023/02/16 08:26:08;;;;;;;;;;;;;;;6.84;100.00;102278.97;5025037;28;19921;-64
2023/02/16 08:28:36;;;;;;;;;;;;;;;6.84;100.00;102283.31;5015082;28;20321;-64
2023/02/16 08:31:03;;;;;;;;;;;;;;;6.88;100.00;102279.63;5036725;28;20011;-66
2023/02/16 08:33:30;;;;;;;;;;;;;;;6.88;100.00;102275.25;5030526;28;20495;-64
2023/02/16 08:35:56;;;;;;;;;;;;;;;6.89;100.00;102268.28;5031130;28;19974;-62
2023/02/16 08:38:23;;;;;;;;;;;;;;;6.89;100.00;102276.91;5024437;28;20591;-65
2023/02/16 08:40:50;;;;;;;;;;;;;;;6.90;100.00;102276.00;5033143;28;20015;-63
2023/02/16 08:43:16;;;;;;;;;;;;;;;6.88;100.00;102280.47;5034213;28;20012;-64
2023/02/16 08:45:46;;;;;;;;;;;;;;;6.88;100.00;102275.25;5026686;28;19936;-64
2023/02/16 08:48:13;;;;;;;;;;;;;;;6.90;100.00;102269.97;5034388;28;19935;-65
2023/02/16 08:50:45;;;;;;;;;;;;;;;6.94;100.00;102263.63;5019051;28;19952;-64
2023/02/16 08:53:13;;;;;;;;;;;;;;;6.98;100.00;102265.16;5037093;28;19925;-65
2023/02/16 08:55:39;;;;;;;;;;;;;;;7.02;100.00;102277.09;5037141;28;20340;-64
2023/02/16 08:58:05;;;;;;;;;;;;;;;7.09;100.00;102275.78;5035784;28;19921;-63
2023/02/16 09:00:36;;;;;;;;;;;;;;;7.13;100.00;102266.00;5040308;28;19921;-61
2023/02/16 09:03:03;;;;;;;;;;;;;;;7.14;100.00;102272.94;5024140;28;19932;-63
2023/02/16 09:05:29;;;;;;;;;;;;;;;7.17;100.00;102267.50;5034882;28;19925;-64
2023/02/16 09:07:56;;;;;;;;;;;;;;;7.19;100.00;102278.72;5034041;28;19936;-63
2023/02/16 09:10:23;;;;;;;;;;;;;;;7.22;100.00;102282.94;5023168;28;19971;-65
2023/02/16 09:12:49;;;;;;;;;;;;;;;7.24;100.00;102283.69;5018325;28;19921;-65
2023/02/16 09:15:16;;;;;;;;;;;;;;;7.27;100.00;102281.75;5036839;28;19941;-64
2023/02/16 09:17:42;;;;;;;;;;;;;;;7.27;100.00;102284.34;5036109;28;19928;-65
2023/02/16 09:20:09;;;;;;;;;;;;;;;7.32;100.00;102284.06;5022080;28;20514;-64
2023/02/16 09:22:35;;;;;;;;;;;;;;;7.36;100.00;102292.56;5039166;28;20633;-65
2023/02/16 09:25:02;;;;;;;;;;;;;;;7.41;100.00;102303.56;5022419;28;20044;-65
2023/02/16 09:27:28;;;;;;;;;;;;;;;7.42;100.00;102302.66;5031336;28;19936;-65
2023/02/16 09:29:57;;;;;;;;;;;;;;;7.42;100.00;102302.66;5020656;28;19932;-65
2023/02/16 09:32:26;;;;;;;;;;;;;;;7.44;100.00;102295.56;5032808;28;19925;-65
2023/02/16 09:34:53;;;;;;;;;;;;;;;7.45;100.00;102298.09;5029597;28;19950;-65
2023/02/16 09:37:19;;;;;;;;;;;;;;;7.51;100.00;102304.72;5035652;28;20444;-64
2023/02/16 09:39:46;;;;;;;;;;;;;;;7.52;100.00;102293.34;5033393;28;19928;-64
2023/02/16 09:42:32;;;;;;;;;;;;;;;7.49;100.00;102301.38;5027426;28;20538;-64
2023/02/16 09:45:10;;;;;;;;;;;;;;;7.56;100.00;102289.63;5025954;28;19929;-65
2023/02/16 09:47:38;;;;;;;;;;;;;;;7.65;100.00;102293.47;5016564;28;19925;-64
2023/02/16 09:50:12;;;;;;;;;;;;;;;7.70;100.00;102299.25;5033286;28;19921;-64
2023/02/16 09:52:42;;;;;;;;;;;;;;;7.68;100.00;102299.34;5026266;28;19925;-65
2023/02/16 09:55:13;;;;;;;;;;;;;;;7.69;100.00;102292.34;5034825;28;20280;-66
2023/02/16 09:57:42;;;;;;;;;;;;;;;7.78;100.00;102290.94;5035485;28;20288;-66
2023/02/16 10:00:27;;;;;;;;;;;;;;;7.72;100.00;102279.94;5015736;28;20642;-63
2023/02/16 10:03:13;;;;;;;;;;;;;;;7.77;100.00;102290.13;5031887;28;19934;-64
2023/02/16 10:06:00;;;;;;;;;;;;;;;7.71;100.00;102299.16;5024567;28;19925;-64
2023/02/16 10:08:30;;;;;;;;;;;;;;;7.71;100.00;102282.66;5034747;28;19925;-62
2023/02/16 10:11:36;;;;;;;;;;;;;;;7.72;100.00;102289.53;5022163;28;20442;-63
2023/02/16 10:13:57;;;;;;;;;;;;;;;7.76;100.00;102282.38;5017626;28;19971;-65
2023/02/16 10:16:30;;;;;;;;;;;;;;;7.70;100.00;102279.22;5019319;28;19987;-64
2023/02/16 10:18:58;;;;;;;;;;;;;;;7.78;100.00;102275.28;5031367;28;19921;-63
2023/02/16 10:21:26;;;;;;;;;;;;;;;7.81;100.00;102278.53;5033005;28;19924;-64
2023/02/16 10:23:55;;;;;;;;;;;;;;;7.85;100.00;102279.22;5027688;28;19928;-63
2023/02/16 10:26:51;;;;;;;;;;;;;;;7.86;100.00;102278.25;5028504;28;19948;-64
2023/02/16 10:29:19;;;;;;;;;;;;;;;7.82;100.00;102274.16;5012835;28;20054;-65
2023/02/16 10:32:02;;;;;;;;;;;;;;;7.83;100.00;102276.69;5032848;28;19921;-65
2023/02/16 10:34:28;;;;;;;;;;;;;;;7.90;100.00;102274.56;5023382;28;19927;-64
2023/02/16 10:36:54;;;;;;;;;;;;;;;7.86;100.00;102278.25;5031316;28;19928;-64
2023/02/16 10:39:21;;;;;;;;;;;;;;;7.89;100.00;102288.53;5022818;28;20051;-66
2023/02/16 10:41:59;;;;;;;;;;;;;;;7.90;100.00;102288.44;5025307;28;19924;-66
2023/02/16 10:44:30;;;;;;;;;;;;;;;7.91;100.00;102289.28;5027450;28;19928;-65
2023/02/16 10:46:59;;;;;;;;;;;;;;;7.92;100.00;102289.19;5024002;28;19977;-65
2023/02/16 10:49:27;;;;;;;;;;;;;;;7.92;100.00;102289.19;5031236;28;19932;-65
2023/02/16 10:51:55;;;;;;;;;;;;;;;7.92;100.00;102285.75;5022808;28;19925;-65
2023/02/16 10:54:26;;;;;;;;;;;;;;;7.89;100.00;102289.38;5022985;28;19925;-66
2023/02/16 10:57:05;;;;;;;;;;;;;;;7.91;100.00;102290.09;5017589;28;19929;-66
2023/02/16 10:59:32;;;;;;;;;;;;;;;7.96;100.00;102289.00;5028068;28;20345;-65
2023/02/16 11:01:59;;;;;;;;;;;;;;;7.89;100.00;102299.81;5023631;28;19951;-67
2023/02/16 11:04:40;;;;;;;;;;;;;;;7.77;100.00;102289.28;5025129;28;19928;-66
2023/02/16 11:07:07;;;;;;;;;;;;;;;7.77;100.00;102284.88;5024887;28;19929;-65
2023/02/16 11:09:34;;;;;;;;;;;;;;;7.70;100.00;102283.56;5022403;28;19927;-66
2023/02/16 11:12:01;;;;;;;;;;;;;;;7.70;100.00;102283.56;5030910;28;19925;-65
2023/02/16 11:14:30;;;;;;;;;;;;;;;7.72;100.00;102284.31;5022485;28;19924;-66
2023/02/16 11:17:09;;;;;;;;;;;;;;;7.72;100.00;102284.31;5031778;28;19928;-65
2023/02/16 11:19:36;;;;;;;;;;;;;;;7.69;100.00;102277.50;5027067;28;19982;-65
2023/02/16 11:22:03;;;;;;;;;;;;;;;7.65;100.00;102283.03;5033525;28;19921;-65
2023/02/16 11:24:29;;;;;;;;;;;;;;;7.69;100.00;102284.50;5021425;28;20007;-64
2023/02/16 11:27:17;;;;;;;;;;;;;;;7.67;100.00;102289.00;5028284;28;19924;-64
2023/02/16 11:29:44;;;;;;;;;;;;;;;7.65;100.00;102293.47;5035000;28;20340;-66
2023/02/16 11:32:11;;;;;;;;;;;;;;;7.58;100.00;102289.53;5031968;28;19931;-64
2023/02/16 11:34:40;;;;;;;;;;;;;;;7.60;100.00;102293.72;5029235;28;20366;-66
2023/02/16 11:37:12;;;;;;;;;;;;;;;7.63;100.00;102290.09;5022373;28;19955;-64
2023/02/16 11:39:40;;;;;;;;;;;;;;;7.65;100.00;102291.69;5026200;28;19925;-65
2023/02/16 11:42:07;;;;;;;;;;;;;;;7.65;100.00;102286.47;5022716;28;20589;-64
2023/02/16 11:44:43;;;;;;;;;;;;;;;7.70;100.00;102280.94;5028678;28;19929;-65
2023/02/16 11:47:21;;;;;;;;;;;;;;;7.73;100.00;102273.78;5031597;28;20015;-64
2023/02/16 11:49:48;;;;;;;;;;;;;;;7.83;100.00;102275.84;5022990;28;20348;-65
2023/02/16 11:52:21;;;;;;;;;;;;;;;7.81;100.00;102275.94;5025935;28;19924;-65
2023/02/16 11:54:49;;;;;;;;;;;;;;;7.82;100.00;102282.00;5028554;28;20012;-65
2023/02/16 11:57:21;;;;;;;;;;;;;;;7.79;100.00;102269.13;5035858;28;19924;-65
2023/02/16 11:59:48;;;;;;;;;;;;;;;7.77;100.00;102271.81;5028030;28;19932;-67
2023/02/16 12:02:33;;;;;;;;;;;;;;;7.80;100.00;102266.44;5037182;28;19929;-65
2023/02/16 12:05:09;;;;;;;;;;;;;;;7.77;100.00;102261.38;5035062;28;19975;-66
2023/02/16 12:07:35;;;;;;;;;;;;;;;7.78;100.00;102242.19;5031749;28;20003;-65
2023/02/16 12:10:02;;;;;;;;;;;;;;;7.83;100.00;102247.09;5029757;28;19932;-65
2023/02/16 12:12:46;;;;;;;;;;;;;;;7.85;100.00;102247.84;5035850;28;19925;-67
2023/02/16 12:15:20;;;;;;;;;;;;;;;7.96;100.00;102249.78;5038806;28;19921;-65
2023/02/16 12:17:46;;;;;;;;;;;;;;;7.97;100.00;102241.88;5020195;28;19929;-66
2023/02/16 12:20:31;;;;;;;;;;;;;;;8.06;100.00;102237.88;5030574;28;20283;-65
2023/02/16 12:23:24;;;;;;;;;;;;;;;8.06;100.00;102241.31;5031432;28;19925;-65
2023/02/16 12:25:53;;;;;;;;;;;;;;;8.04;100.00;102229.28;5026991;28;19947;-65
2023/02/16 12:28:40;;;;;;;;;;;;;;;8.14;100.00;102226.94;5041780;28;20281;-65
2023/02/16 12:31:29;;;;;;;;;;;;;;;8.16;100.00;102222.44;5025497;28;20417;-64
2023/02/16 12:34:19;;;;;;;;;;;;;;;8.22;100.00;102228.13;5026656;28;20007;-66
2023/02/16 12:37:12;;;;;;;;;;;;;;;8.32;100.00;102207.47;5039922;28;19925;-64
2023/02/16 12:39:39;;;;;;;;;;;;;;;8.40;100.00;102206.97;5033822;28;20527;-64
2023/02/16 12:42:31;;;;;;;;;;;;;;;8.37;100.00;102209.78;5034299;28;19932;-65
2023/02/16 12:45:02;;;;;;;;;;;;;;;8.43;100.00;102206.81;5023053;28;19925;-65
2023/02/16 12:47:35;;;;;;;;;;;;;;;8.47;100.00;102196.06;5034297;28;19951;-65
2023/02/16 12:50:03;;;;;;;;;;;;;;;8.54;100.00;102195.66;5014608;28;19959;-64
2023/02/16 12:52:34;;;;;;;;;;;;;;;8.65;100.00;102187.97;5016984;28;20344;-63
2023/02/16 12:55:20;;;;;;;;;;;;;;;8.83;100.00;102175.44;5031310;28;20341;-65
2023/02/16 12:57:53;;;;;;;;;;;;;;;8.98;100.00;102168.34;5002035;28;19959;-64
2023/02/16 13:00:35;;;;;;;;;;;;;;;9.10;100.00;102165.72;5021036;28;19921;-65
2023/02/16 13:03:20;;;;;;;;;;;;;;;9.02;100.00;102162.81;5026730;28;19974;-67
2023/02/16 13:05:52;;;;;;;;;;;;;;;9.01;100.00;102155.88;5031408;28;19987;-66
2023/02/16 13:08:41;;;;;;;;;;;;;;;9.06;100.00;102150.34;5034411;28;20023;-66
2023/02/16 13:11:08;;;;;;;;;;;;;;;9.04;100.00;102155.69;5001024;28;20003;-65
2023/02/16 13:13:36;;;;;;;;;;;;;;;8.96;100.00;102155.38;5021251;28;19927;-64
2023/02/16 13:16:02;;;;;;;;;;;;;;;9.07;100.00;102138.91;5021866;28;19925;-64
2023/02/16 13:18:31;;;;;;;;;;;;;;;9.21;100.00;102133.59;5021153;28;19927;-65
2023/02/16 13:21:04;;;;;;;;;;;;;;;9.29;100.00;102128.66;5031769;28;19925;-65
2023/02/16 13:23:36;;;;;;;;;;;;;;;9.35;100.00;102130.03;5028699;28;20408;-64
2023/02/16 13:26:23;;;;;;;;;;;;;;;9.50;100.00;102122.88;5026659;28;19925;-64
2023/02/16 13:29:13;;;;;;;;;;;;;;;9.60;100.00;102134.38;4997349;28;19925;-64
2023/02/16 13:31:57;;;;;;;;;;;;;;;9.62;100.00;102129.03;5044119;28;19920;-65